Ithaca, NE (68033)

12:26 AM CST on February 12, 2016 (GMT -0600)
ARDC Farm/Fac Shop | | Change Station
CLOSE
Current Station
Personal Weather Station
Location: Ithaca, NE
Elevation: 1170 ft
Nearby Weather Stations

Elev 1170 ft 41.18 °N, 96.47 °W | Updated 8 seconds ago

Overcast
Overcast
25.3 °F
Feels Like 25 °F
N
2.9
Wind Variable Wind from North
Gusts 4.0 mph

Today
High -- | Low -- °F
--% Chance of Precip.
Yesterday
High -- | Low -- °F
Precip. -- in
Pressure 30.22 in
Visibility 10.0 miles
Clouds Overcast 1000 ft
Windchill 25 °F
Dew Point 23 °F
Humidity 91%
Rainfall 0.00 in
Snow Depth Not available.
7:25 AM 5:56 PM
Waxing Crescent, 18% visible
METAR KAHQ 120615Z AUTO 01006KT 10SM OVC010 M03/M05 A3022 RMK AO2 T10311047
Pressure 30.22 in
Visibility 10.0 miles
Clouds Overcast 1000 ft
Windchill 25 °F
Dew Point 23 °F
Humidity 91%
Rainfall 0.00 in
Snow Depth Not available.
7:25 AM 5:56 PM
Waxing Crescent, 18% visible
METAR KAHQ 120615Z AUTO 01006KT 10SM OVC010 M03/M05 A3022 RMK AO2 T10311047

10-Day Weather Forecast

Almanac

Astronomy

Feb. 12, 2016 Rise Set
Actual Time
Civil Twilight
Nautical Twilight
Astronomical Twilight
Moon
Length of Visible Light
Length of Day
Tomorrow will be .
, % of the Moon is Illuminated

Today's Extremes

State Highs State Lows

Community

WunderPhotos

Upload Photos

1,892,276 photos uploaded!

WunderBlog® & News

Nearby

Air Quality

  Air Quality AQ Index Pollutant
Not available.

Snow Depth

Station Depth Elevation

Earthquake Activity

City Distance Mag. Time & Date
Minimum magnitude displayed is 2.5.

Coastal Water Temperatures

Place Temperature

Stations

Nearby Weather Stations

Station Location Temp. Windchill Dew Point Humidity Wind Precip. Elev Updated Type
                   

Watches & Warnings

There are currently no watches in effect.